sensor_id;sensor_type;location;lat;lon;timestamp;P1;durP1;ratioP1;P2;durP2;ratioP2
39782;SDS011;25462;51.164;17.100;2023-02-22T00:04:48;22.00;;;7.00;;
39782;SDS011;25462;51.164;17.100;2023-02-22T00:10:03;27.20;;;7.20;;
39782;SDS011;25462;51.164;17.100;2023-02-22T00:15:12;25.40;;;7.50;;
39782;SDS011;25462;51.164;17.100;2023-02-22T00:20:18;39.50;;;8.60;;
39782;SDS011;25462;51.164;17.100;2023-02-22T00:25:32;29.50;;;8.00;;
39782;SDS011;25462;51.164;17.100;2023-02-22T00:30:42;38.00;;;10.20;;
39782;SDS011;25462;51.164;17.100;2023-02-22T00:35:48;26.10;;;6.70;;
39782;SDS011;25462;51.164;17.100;2023-02-22T00:40:58;23.80;;;6.50;;
39782;SDS011;25462;51.164;17.100;2023-02-22T00:46:06;25.50;;;6.40;;
39782;SDS011;25462;51.164;17.100;2023-02-22T00:51:10;22.20;;;6.30;;
39782;SDS011;25462;51.164;17.100;2023-02-22T00:56:39;22.20;;;7.00;;
39782;SDS011;25462;51.164;17.100;2023-02-22T01:01:44;29.00;;;7.90;;
39782;SDS011;25462;51.164;17.100;2023-02-22T01:06:52;24.70;;;7.60;;
39782;SDS011;25462;51.164;17.100;2023-02-22T01:11:57;32.30;;;8.40;;
39782;SDS011;25462;51.164;17.100;2023-02-22T01:17:01;25.90;;;7.60;;
39782;SDS011;25462;51.164;17.100;2023-02-22T01:22:07;28.80;;;7.30;;
39782;SDS011;25462;51.164;17.100;2023-02-22T01:27:13;33.30;;;7.80;;
39782;SDS011;25462;51.164;17.100;2023-02-22T01:32:45;28.70;;;8.40;;
39782;SDS011;25462;51.164;17.100;2023-02-22T01:38:24;28.00;;;7.90;;
39782;SDS011;25462;51.164;17.100;2023-02-22T01:43:30;30.20;;;6.90;;
39782;SDS011;25462;51.164;17.100;2023-02-22T01:48:42;42.20;;;10.60;;
39782;SDS011;25462;51.164;17.100;2023-02-22T01:53:58;25.60;;;7.00;;
39782;SDS011;25462;51.164;17.100;2023-02-22T01:59:09;21.10;;;7.60;;
39782;SDS011;25462;51.164;17.100;2023-02-22T02:04:19;28.90;;;8.90;;
39782;SDS011;25462;51.164;17.100;2023-02-22T02:09:38;30.30;;;7.00;;
39782;SDS011;25462;51.164;17.100;2023-02-22T02:14:46;26.80;;;6.80;;
39782;SDS011;25462;51.164;17.100;2023-02-22T02:44:04;28.20;;;7.10;;
39782;SDS011;25462;51.164;17.100;2023-02-22T02:49:17;11.80;;;4.50;;
39782;SDS011;25462;51.164;17.100;2023-02-22T02:55:06;24.60;;;6.40;;
39782;SDS011;25462;51.164;17.100;2023-02-22T03:00:15;25.70;;;6.90;;
39782;SDS011;25462;51.164;17.100;2023-02-22T03:11:37;19.60;;;6.70;;
39782;SDS011;25462;51.164;17.100;2023-02-22T03:29:03;24.00;;;8.90;;
39782;SDS011;25462;51.164;17.100;2023-02-22T03:34:15;29.80;;;9.10;;
39782;SDS011;25462;51.164;17.100;2023-02-22T03:39:56;28.10;;;10.00;;
39782;SDS011;25462;51.164;17.100;2023-02-22T03:45:06;24.90;;;8.50;;
39782;SDS011;25462;51.164;17.100;2023-02-22T03:50:19;29.70;;;8.90;;
39782;SDS011;25462;51.164;17.100;2023-02-22T03:55:40;26.00;;;7.50;;
39782;SDS011;25462;51.164;17.100;2023-02-22T04:00:48;33.50;;;10.50;;
39782;SDS011;25462;51.164;17.100;2023-02-22T04:05:58;40.40;;;11.50;;
39782;SDS011;25462;51.164;17.100;2023-02-22T04:11:02;38.80;;;12.30;;
39782;SDS011;25462;51.164;17.100;2023-02-22T04:16:08;33.50;;;12.00;;
39782;SDS011;25462;51.164;17.100;2023-02-22T04:21:18;40.30;;;13.50;;
39782;SDS011;25462;51.164;17.100;2023-02-22T04:26:25;32.40;;;12.10;;
39782;SDS011;25462;51.164;17.100;2023-02-22T04:31:31;40.90;;;14.20;;
39782;SDS011;25462;51.164;17.100;2023-02-22T04:36:39;37.60;;;11.30;;
39782;SDS011;25462;51.164;17.100;2023-02-22T04:41:48;23.90;;;8.60;;
39782;SDS011;25462;51.164;17.100;2023-02-22T04:53:09;33.50;;;11.20;;
39782;SDS011;25462;51.164;17.100;2023-02-22T04:58:15;28.80;;;11.20;;
39782;SDS011;25462;51.164;17.100;2023-02-22T05:03:19;35.90;;;13.10;;
39782;SDS011;25462;51.164;17.100;2023-02-22T05:08:33;34.20;;;12.20;;
39782;SDS011;25462;51.164;17.100;2023-02-22T05:13:42;34.00;;;13.90;;
39782;SDS011;25462;51.164;17.100;2023-02-22T05:19:27;28.20;;;12.10;;
39782;SDS011;25462;51.164;17.100;2023-02-22T05:24:36;30.60;;;13.10;;
39782;SDS011;25462;51.164;17.100;2023-02-22T05:29:41;33.40;;;13.30;;
39782;SDS011;25462;51.164;17.100;2023-02-22T06:51:03;35.70;;;13.30;;
39782;SDS011;25462;51.164;17.100;2023-02-22T07:03:34;40.90;;;14.20;;
39782;SDS011;25462;51.164;17.100;2023-02-22T07:08:40;44.20;;;18.80;;
39782;SDS011;25462;51.164;17.100;2023-02-22T07:13:46;44.70;;;13.20;;
39782;SDS011;25462;51.164;17.100;2023-02-22T07:18:51;38.80;;;14.00;;
39782;SDS011;25462;51.164;17.100;2023-02-22T07:23:56;34.10;;;13.70;;
39782;SDS011;25462;51.164;17.100;2023-02-22T07:29:22;35.50;;;13.80;;
39782;SDS011;25462;51.164;17.100;2023-02-22T07:34:28;36.80;;;15.20;;
39782;SDS011;25462;51.164;17.100;2023-02-22T07:39:34;35.70;;;13.30;;
39782;SDS011;25462;51.164;17.100;2023-02-22T07:44:44;27.80;;;9.90;;
39782;SDS011;25462;51.164;17.100;2023-02-22T07:49:48;24.50;;;9.40;;
39782;SDS011;25462;51.164;17.100;2023-02-22T07:54:59;25.90;;;9.70;;
39782;SDS011;25462;51.164;17.100;2023-02-22T08:00:06;31.00;;;8.60;;
39782;SDS011;25462;51.164;17.100;2023-02-22T08:05:14;23.70;;;8.70;;
39782;SDS011;25462;51.164;17.100;2023-02-22T08:10:28;27.70;;;8.10;;
39782;SDS011;25462;51.164;17.100;2023-02-22T08:15:37;31.40;;;8.00;;
39782;SDS011;25462;51.164;17.100;2023-02-22T08:20:43;21.20;;;6.50;;
39782;SDS011;25462;51.164;17.100;2023-02-22T08:25:52;25.80;;;6.40;;
39782;SDS011;25462;51.164;17.100;2023-02-22T08:30:58;21.70;;;6.60;;
39782;SDS011;25462;51.164;17.100;2023-02-22T08:36:03;31.70;;;6.00;;
39782;SDS011;25462;51.164;17.100;2023-02-22T08:41:17;25.30;;;7.30;;
39782;SDS011;25462;51.164;17.100;2023-02-22T08:46:32;30.20;;;7.30;;
39782;SDS011;25462;51.164;17.100;2023-02-22T08:51:37;30.40;;;8.50;;
39782;SDS011;25462;51.164;17.100;2023-02-22T08:56:42;27.60;;;6.80;;
39782;SDS011;25462;51.164;17.100;2023-02-22T09:01:57;23.50;;;5.00;;
39782;SDS011;25462;51.164;17.100;2023-02-22T09:07:04;23.80;;;6.10;;
39782;SDS011;25462;51.164;17.100;2023-02-22T09:12:09;28.00;;;6.60;;
39782;SDS011;25462;51.164;17.100;2023-02-22T09:17:24;18.70;;;5.20;;
39782;SDS011;25462;51.164;17.100;2023-02-22T09:22:29;23.80;;;6.80;;
39782;SDS011;25462;51.164;17.100;2023-02-22T09:27:35;22.40;;;6.10;;
39782;SDS011;25462;51.164;17.100;2023-02-22T09:32:40;24.20;;;5.70;;
39782;SDS011;25462;51.164;17.100;2023-02-22T09:37:47;27.70;;;6.50;;
39782;SDS011;25462;51.164;17.100;2023-02-22T09:48:35;25.90;;;6.20;;
39782;SDS011;25462;51.164;17.100;2023-02-22T09:53:57;25.70;;;6.20;;
39782;SDS011;25462;51.164;17.100;2023-02-22T09:59:04;17.80;;;5.00;;
39782;SDS011;25462;51.164;17.100;2023-02-22T12:00:30;15.20;;;3.90;;
39782;SDS011;25462;51.164;17.100;2023-02-22T12:06:51;20.50;;;3.90;;
39782;SDS011;25462;51.164;17.100;2023-02-22T12:52:02;11.20;;;3.20;;
39782;SDS011;25462;51.164;17.100;2023-02-22T13:24:53;12.30;;;2.90;;
39782;SDS011;25462;51.164;17.100;2023-02-22T16:24:20;25.60;;;7.40;;
39782;SDS011;25462;51.164;17.100;2023-02-22T16:42:54;21.70;;;9.00;;
39782;SDS011;25462;51.164;17.100;2023-02-22T16:49:05;36.30;;;14.30;;
39782;SDS011;25462;51.164;17.100;2023-02-22T17:07:20;23.40;;;8.80;;
39782;SDS011;25462;51.164;17.100;2023-02-22T17:12:35;24.40;;;7.40;;
39782;SDS011;25462;51.164;17.100;2023-02-22T17:17:45;37.20;;;13.30;;
39782;SDS011;25462;51.164;17.100;2023-02-22T17:23:11;24.00;;;8.30;;
39782;SDS011;25462;51.164;17.100;2023-02-22T17:28:16;20.30;;;7.30;;
39782;SDS011;25462;51.164;17.100;2023-02-22T17:33:22;24.90;;;7.90;;
39782;SDS011;25462;51.164;17.100;2023-02-22T17:51:26;28.40;;;10.80;;
39782;SDS011;25462;51.164;17.100;2023-02-22T17:56:59;33.90;;;12.20;;
39782;SDS011;25462;51.164;17.100;2023-02-22T18:02:13;34.30;;;12.70;;
39782;SDS011;25462;51.164;17.100;2023-02-22T18:07:24;29.10;;;10.50;;
39782;SDS011;25462;51.164;17.100;2023-02-22T18:12:57;22.20;;;8.90;;
39782;SDS011;25462;51.164;17.100;2023-02-22T18:18:33;24.10;;;10.00;;
39782;SDS011;25462;51.164;17.100;2023-02-22T18:23:48;29.50;;;11.70;;
39782;SDS011;25462;51.164;17.100;2023-02-22T18:29:10;28.50;;;11.20;;
39782;SDS011;25462;51.164;17.100;2023-02-22T18:34:42;28.10;;;10.80;;
39782;SDS011;25462;51.164;17.100;2023-02-22T18:46:28;34.20;;;11.40;;
39782;SDS011;25462;51.164;17.100;2023-02-22T18:51:41;35.60;;;13.90;;
39782;SDS011;25462;51.164;17.100;2023-02-22T18:57:23;49.70;;;18.60;;
39782;SDS011;25462;51.164;17.100;2023-02-22T19:03:22;42.70;;;17.10;;
39782;SDS011;25462;51.164;17.100;2023-02-22T19:08:28;36.10;;;15.00;;
39782;SDS011;25462;51.164;17.100;2023-02-22T19:19:37;25.40;;;11.60;;
39782;SDS011;25462;51.164;17.100;2023-02-22T19:25:41;27.00;;;10.50;;
39782;SDS011;25462;51.164;17.100;2023-02-22T19:37:03;25.00;;;9.40;;
39782;SDS011;25462;51.164;17.100;2023-02-22T19:42:17;24.20;;;10.60;;
39782;SDS011;25462;51.164;17.100;2023-02-22T19:47:33;29.40;;;10.80;;
39782;SDS011;25462;51.164;17.100;2023-02-22T19:53:18;32.40;;;11.40;;
39782;SDS011;25462;51.164;17.100;2023-02-22T19:59:00;28.70;;;10.20;;
39782;SDS011;25462;51.164;17.100;2023-02-22T20:04:31;27.40;;;11.60;;
39782;SDS011;25462;51.164;17.100;2023-02-22T20:09:46;25.80;;;10.60;;
39782;SDS011;25462;51.164;17.100;2023-02-22T20:14:54;33.50;;;13.70;;
39782;SDS011;25462;51.164;17.100;2023-02-22T20:20:09;30.40;;;13.50;;
39782;SDS011;25462;51.164;17.100;2023-02-22T20:25:27;27.20;;;11.50;;
39782;SDS011;25462;51.164;17.100;2023-02-22T20:36:47;26.40;;;12.40;;
39782;SDS011;25462;51.164;17.100;2023-02-22T20:47:44;31.90;;;12.50;;
39782;SDS011;25462;51.164;17.100;2023-02-22T20:53:09;39.50;;;15.30;;
39782;SDS011;25462;51.164;17.100;2023-02-22T20:58:18;60.10;;;25.50;;
39782;SDS011;25462;51.164;17.100;2023-02-22T21:14:53;44.90;;;18.50;;
39782;SDS011;25462;51.164;17.100;2023-02-22T21:26:12;36.30;;;18.10;;
39782;SDS011;25462;51.164;17.100;2023-02-22T21:32:14;31.50;;;15.10;;
39782;SDS011;25462;51.164;17.100;2023-02-22T21:37:26;29.90;;;14.80;;
39782;SDS011;25462;51.164;17.100;2023-02-22T21:42:36;26.90;;;14.00;;
39782;SDS011;25462;51.164;17.100;2023-02-22T21:47:54;34.30;;;14.60;;
39782;SDS011;25462;51.164;17.100;2023-02-22T21:53:13;36.60;;;15.70;;
39782;SDS011;25462;51.164;17.100;2023-02-22T22:04:22;39.20;;;16.90;;
39782;SDS011;25462;51.164;17.100;2023-02-22T22:09:36;34.00;;;15.00;;
39782;SDS011;25462;51.164;17.100;2023-02-22T22:14:44;30.40;;;14.80;;
39782;SDS011;25462;51.164;17.100;2023-02-22T22:19:49;37.10;;;15.10;;
39782;SDS011;25462;51.164;17.100;2023-02-22T22:24:54;38.50;;;15.80;;
39782;SDS011;25462;51.164;17.100;2023-02-22T22:30:07;29.00;;;13.80;;
39782;SDS011;25462;51.164;17.100;2023-02-22T22:35:21;29.40;;;13.40;;
39782;SDS011;25462;51.164;17.100;2023-02-22T22:40:26;31.70;;;13.70;;
39782;SDS011;25462;51.164;17.100;2023-02-22T22:45:37;32.40;;;14.50;;
39782;SDS011;25462;51.164;17.100;2023-02-22T22:50:44;41.70;;;17.00;;
39782;SDS011;25462;51.164;17.100;2023-02-22T22:56:03;29.90;;;14.20;;
39782;SDS011;25462;51.164;17.100;2023-02-22T23:01:28;34.70;;;14.90;;
39782;SDS011;25462;51.164;17.100;2023-02-22T23:06:59;39.70;;;15.80;;
39782;SDS011;25462;51.164;17.100;2023-02-22T23:12:04;36.80;;;16.20;;
39782;SDS011;25462;51.164;17.100;2023-02-22T23:17:15;32.70;;;14.40;;
39782;SDS011;25462;51.164;17.100;2023-02-22T23:22:55;35.40;;;14.90;;
39782;SDS011;25462;51.164;17.100;2023-02-22T23:28:06;35.20;;;15.20;;
39782;SDS011;25462;51.164;17.100;2023-02-22T23:33:31;33.10;;;14.50;;
39782;SDS011;25462;51.164;17.100;2023-02-22T23:38:48;41.10;;;16.60;;
39782;SDS011;25462;51.164;17.100;2023-02-22T23:43:52;29.00;;;15.10;;
39782;SDS011;25462;51.164;17.100;2023-02-22T23:48:57;33.80;;;17.00;;
